Aérodrome :
LOGIN :

S'inscrire | Disclaimer

   EN    FR    IT 

 










Légende :    VFR   VFR Marginal   IFR   IFR Intensif   IFR Très Intensif
Visi : 
Plafond : 
>= 8 km
>= 3000ft
5 à 8 km
1000 à 3000 ft
1500m à 5 km
500 à 1000 ft
800 à 1500m
200 à 500 ft
< 800m
< 200 ft
Symboles :   Orages  Brouillard  Fortes neiges  Fortes précipitations  Vent > 20 kt
SIGMETs :   Divers  Orages  Givrage  Turbulence  Onde Orograph.  Cendres Volcan.






- Altitude de l'aérodrome : 776 ft
- Code IATA : RMS


ETAR - Ramstein Air Base

DERNIER METAR :
  • 272216Z 21013G24KT 9999 -RA SCT016 BKN021 06/06 A2958 RMK AO2A SLP025 FZRANO $

METARs EXPIRÉS :
  • 272156Z 21010G19KT 9999 -RA BKN016 OVC021 06/06 A2959 RMK AO2A PK WND 21026/25 RAE40RAB53 SLP028 P0000 T00610061 FZRANO $
  • 272140Z 21010G18KT 9999 BKN016 OVC024 06/06 A2960 RMK AO2A RAE40 BKN V OVC SLP032 FZRANO $
  • 272128Z 20010G22KT 9999 -RA OVC016 06/06 A2961 RMK AO2A SLP035 FZRANO $
  • 272057Z 21011G19KT 9000 -RA OVC017 06/06 A2964 RMK AO2A PK WND 20026/40 RAB40 OVC V BKN CIG 016 RWY08 SLP045 P0000 60007 T00570057 57026 FZRANO $
  • 272040Z 21014G23KT 9000 -RA BKN016 OVC022 06/06 A2964 RMK AO2A RAB40 BKN V OVC SLP045 FZRANO $
  • 272029Z 22013G20KT 9999 OVC016 06/06 A2965 RMK AO2A SLP050 FZRANO $
  • 272014Z 21013G21KT 9999 BKN015 OVC020 06/06 A2965 RMK AO2A SLP050 FZRANO $
  • 272011Z 21009G21KT 9999 OVC017 06/06 A2966 RMK AO2A SLP053 FZRANO $
  • 271956Z 21010G22KT 9999 BKN014 OVC019 06/06 A2967 RMK AO2A RAE06RAB21E33RAB39E48 SLP057 P0001 T00580058 FZRANO $
  • 271939Z 21011G17KT 9000 -RA BKN014 OVC020 06/06 A2968 RMK AO2A RAE06RAB21E33RAB39 SLP060 FZRANO $
  • 271933Z 21010G19KT 9999 BKN014 OVC020 06/06 A2968 RMK AO2A RAE06RAB21E33 SLP060 FZRANO $

TAF AMD TAF ETAR
Valide du 27 à 19h jusqu'au 29 à 00h UTC


271942Z 2719/2824 22010G20KT 8000 -SHRA BKN015 OVC025 WS020/23030KT 610408 510003 QNH2958INS
BECMG 2722/2723 22015G30KT 8000 -SHRA BKN015 OVC025 610408 510003 QNH2942INS
BECMG 2806/2807 24018G35KT 9000 -SHRA FEW015 BKN030 610303 520003 QNH2942INS
BECMG 2812/2813 25012G25KT 9000 -SHRA BKN030 610306 510003 QNH2954INS
BECMG 2821/2822 23010G20KT 9000 -SHRA BKN018 OVC030 610208 510003 QNH2957INS
TEMPO 2822/2824 9000 -SHRASN TX06/2719Z TN04/2812Z



MET'MAP, la Météo Aéronautique d'un coup d'oeil ! - Copyright ORBIFLY Décembre 2007 - Disclaimer

ORBIFLY MET'MAP TEAM :

Programmation & Développement : Alexandra Zaïnal
Sur une idée originale de : Baudouin d'Aumeries
Assistance à la programmation : Marc-Olivier Méhu
Soutien technique & logistique : Manuel Goepfert

Contact : metmap@orbifly.com




SOURCES & CREDITS :

   NOAA